Terminal Aerodrome Forecast
Issued by NWS

Home | Current Version | Previous Version | Text Only | Print | Product List | Glossary Off
Versions: 1 2 3 4 5 6 7 8 9 10 11 12 13 14 15 16 17 18

001
FTUS43 KMPX 071723
TAFRWF
TAF
KRWF 071723Z 0718/0818 29020G30KT 6SM BR VCSH SCT020 BKN035
     FM072000 30025G38KT 3SM -SN BLSN OVC015
      TEMPO 0723/0803 3/4SM -SN BLSN
     FM080300 32030G42KT 1SM -SN BLSN OVC012
      TEMPO 0803/0807 1/4SM BLSN
     FM081200 33026G38KT 1SM BLSN OVC020=

USA.gov is the U.S. government's official web portal to all federal, state and local government web resources and services.